Pagina principale
METAR-TAF:

METAR-TAF

Aeroporti :

Messina, Italia

latitudine: 38-12N, longitudine: 015-33E, altezza: 59 m

Osservazione

Il bollettino è stato emesso 44 minuti fa, alle 17:55 UTC
Vento 7 kt da est/nord-est con raffiche fino a 21 kt
Temperature 17°C
Umidità 82%
Pressione 1009 hPa
Visibilità 10 km o più
Poco nuvoloso ad un'altezza di 1500 ft
Nubi sparse ad un'altezza di 2000 ft

METAR: LICF 191755Z 06007G21KT 9999 FEW015 SCT020 17/14 Q1009 RMK BKN QUK 2 QUL 0 VIS MAR 16 KM MON E CIME INC VAR RAPID MON W CIME INC NC VIS MIN 9999

Ora: 20:39 (18:39 UTC)


TAF: mancante

Osservazioni e previsioni meteorologiche di più di 4000 aeroporti (messaggi METAR e TAF).

Le stazioni disponibili sono rappresentate dai dischi gialli e rossi sulla carta.

Puntare il mouse per vedere il nome della stazione.

Clicca sopra per visualizzare le osservazioni e previsioni meteorologiche.

Per cambiare la mappa : fare clic sui pulsanti verdi con una croce nera per ingrandire, il pulsante verde con un trattino per diminuire, o sulla freccia verde per le mappe adiacenti.


METAR-TAF: